Time;durP1;ratioP1;P1;durP2;ratioP2;P2;SDS_P1;SDS_P2;PMS_P1;PMS_P2;Temp;Humidity;BMP_temperature;BMP_pressure;BME280_temperature;BME280_humidity;BME280_pressure;Samples;Min_cycle;Max_cycle;Signal;HPM_P1;HPM_P2
2021/01/16 00:01:54;;;;;;;;;22.00;20.60;;;;;3.45;38.62;98962.53;6189208;28;125783;-57
2021/01/16 00:04:56;;;;;;;;;25.80;22.00;;;;;3.53;38.82;98992.78;6195038;28;126671;-57
2021/01/16 00:08:05;;;;;;;;;24.00;20.40;;;;;2.55;38.35;98841.41;6183218;28;127079;-57
2021/01/16 00:11:07;;;;;;;;;25.00;22.00;;;;;3.53;38.45;99014.94;6182391;28;124378;-57
2021/01/16 00:14:08;;;;;;;;;25.40;20.40;;;;;3.17;38.75;98957.81;6192235;28;126839;-58
2021/01/16 00:17:10;;;;;;;;;22.40;22.40;;;;;3.17;39.10;98963.16;6222387;28;126464;-56
2021/01/16 00:20:12;;;;;;;;;21.80;20.00;;;;;3.39;38.96;99016.50;6207471;28;126093;-57
2021/01/16 00:23:14;;;;;;;;;24.00;22.25;;;;;3.37;39.20;99020.38;6207870;28;126670;-57
2021/01/16 00:26:15;;;;;;;;;26.50;22.00;;;;;2.93;39.12;98964.06;6207362;28;125165;-56
2021/01/16 00:29:17;;;;;;;;;22.00;20.50;;;;;3.28;39.26;99018.72;6207492;28;129129;-57
2021/01/16 00:32:18;;;;;;;;;22.60;22.00;;;;;3.23;39.08;99027.22;6206953;28;127790;-57
2021/01/16 00:35:21;;;;;;;;;21.00;19.67;;;;;3.21;38.68;99017.75;6206839;28;125147;-56
2021/01/16 00:38:26;;;;;;;;;22.00;19.80;;;;;3.17;38.53;99019.09;6186186;27;126772;-57
2021/01/16 00:41:27;;;;;;;;;21.50;19.50;;;;;3.13;38.78;99021.25;6186797;28;124878;-57
2021/01/16 00:44:33;;;;;;;;;21.00;18.20;;;;;3.12;38.91;99016.94;6186740;28;123972;-57
2021/01/16 00:47:38;;;;;;;;;20.60;19.60;;;;;3.02;38.59;99018.97;6186578;28;127781;-56
2021/01/16 00:50:47;;;;;;;;;19.00;16.80;;;;;3.20;38.86;99018.75;6186689;28;124137;-57
2021/01/16 00:53:51;;;;;;;;;19.75;18.50;;;;;3.22;38.58;99014.09;6186161;28;126158;-56
2021/01/16 00:56:52;;;;;;;;;22.00;18.00;;;;;3.24;38.39;99022.72;6191952;28;126598;-57
2021/01/16 00:59:57;;;;;;;;;20.40;19.40;;;;;3.29;38.51;99029.19;6226873;28;124793;-56
2021/01/16 01:02:58;;;;;;;;;21.50;18.00;;;;;3.31;38.50;99027.22;6221858;28;126836;-57
2021/01/16 01:06:00;;;;;;;;;20.80;17.80;;;;;3.33;38.30;99027.03;6186782;28;125315;-56
2021/01/16 01:09:03;;;;;;;;;17.50;16.50;;;;;3.36;38.07;99029.34;6185720;28;124317;-57
2021/01/16 01:12:06;;;;;;;;;17.00;14.40;;;;;3.32;37.77;99025.38;6186570;28;126409;-56
2021/01/16 01:15:08;;;;;;;;;19.00;17.00;;;;;3.40;37.64;99028.84;6205976;28;125093;-57
2021/01/16 01:18:09;;;;;;;;;16.00;14.00;;;;;3.42;37.85;99040.13;6211227;28;126371;-57
2021/01/16 01:21:11;;;;;;;;;18.00;16.00;;;;;3.46;37.55;99030.81;6210470;28;126869;-56
2021/01/16 01:24:12;;;;;;;;;17.00;14.00;;;;;3.48;37.42;99026.13;6226032;28;124986;-57
2021/01/16 01:27:14;;;;;;;;;18.25;15.00;;;;;3.53;37.54;99027.44;6206029;28;124480;-56
2021/01/16 01:30:15;;;;;;;;;19.00;17.40;;;;;3.58;37.51;99033.09;6195095;28;126884;-56
2021/01/16 01:33:17;;;;;;;;;15.75;13.00;;;;;3.54;37.34;99023.78;6189974;28;126565;-57
2021/01/16 01:36:18;;;;;;;;;19.00;16.00;;;;;3.40;37.78;99023.50;6195649;28;125924;-56
2021/01/16 01:39:20;;;;;;;;;16.00;16.00;;;;;3.49;37.46;99021.63;6185896;28;126660;-56
2021/01/16 01:42:21;;;;;;;;;17.00;15.00;;;;;3.63;37.53;99038.72;6201036;28;125431;-57
2021/01/16 01:45:25;;;;;;;;;15.00;13.75;;;;;3.67;37.43;99034.69;6186365;28;126775;-56
2021/01/16 01:48:28;;;;;;;;;16.75;14.25;;;;;3.70;36.97;99039.69;6185489;28;124841;-56
2021/01/16 01:51:31;;;;;;;;;18.00;15.00;;;;;3.71;36.94;99036.88;6167728;28;124977;-57
2021/01/16 01:54:34;;;;;;;;;15.20;13.60;;;;;3.71;37.28;99044.03;6186013;28;126485;-56
2021/01/16 01:57:44;;;;;;;;;18.00;16.00;;;;;3.69;37.38;99036.19;6185913;28;125205;-57
2021/01/16 02:00:48;;;;;;;;;16.20;13.40;;;;;3.71;37.14;99046.69;6185811;28;126106;-57
2021/01/16 02:03:50;;;;;;;;;18.00;15.00;;;;;3.58;37.07;99023.25;6206797;28;127182;-57
2021/01/16 02:06:51;;;;;;;;;18.00;15.60;;;;;3.80;36.92;99035.00;6209855;28;125083;-57
2021/01/16 02:09:54;;;;;;;;;17.00;16.00;;;;;3.80;37.20;99035.81;6210236;28;126855;-57
2021/01/16 02:12:57;;;;;;;;;15.00;13.00;;;;;3.78;36.35;99040.47;6196428;28;126317;-57
2021/01/16 02:16:09;;;;;;;;;16.50;14.50;;;;;3.84;36.47;99028.28;6183190;28;125366;-57
2021/01/16 02:19:13;;;;;;;;;16.00;15.00;;;;;3.84;36.26;99029.13;6184516;28;124319;-57
2021/01/16 02:22:15;;;;;;;;;17.00;14.00;;;;;3.77;36.31;99030.81;6206805;28;126505;-57
2021/01/16 02:25:30;;;;;;;;;16.00;14.60;;;;;3.54;36.40;99002.44;6206348;28;127282;-57
2021/01/16 02:28:35;;;;;;;;;16.00;14.60;;;;;3.65;36.75;99020.72;6209058;28;126196;-57
2021/01/16 02:31:40;;;;;;;;;15.00;15.00;;;;;3.80;37.07;99025.16;6201489;28;124593;-57
2021/01/16 02:34:46;;;;;;;;;16.00;15.00;;;;;3.79;36.90;99023.50;6207586;28;124931;-57
2021/01/16 02:38:06;;;;;;;;;16.00;15.60;;;;;3.76;36.66;99042.47;6200568;28;125988;-56
2021/01/16 02:41:36;;;;;;;;;15.67;14.00;;;;;3.49;36.76;99000.31;6204787;28;126046;-57
2021/01/16 02:44:38;;;;;;;;;15.75;13.00;;;;;3.73;36.72;99028.69;6170977;28;126271;-56
2021/01/16 02:48:07;;;;;;;;;15.20;12.00;;;;;3.79;36.61;99042.16;6204301;28;128327;-57
2021/01/16 02:51:15;;;;;;;;;16.40;14.40;;;;;3.81;36.60;99026.78;6208166;28;123923;-58
2021/01/16 02:54:17;;;;;;;;;16.40;14.00;;;;;3.83;36.49;99024.78;6209267;28;124925;-56
2021/01/16 02:57:18;;;;;;;;;16.40;15.00;;;;;3.84;36.63;99015.78;6209361;28;127258;-57
2021/01/16 03:00:21;;;;;;;;;14.00;12.60;;;;;3.50;36.97;98967.31;6208575;28;125259;-56
2021/01/16 03:03:22;;;;;;;;;17.00;15.00;;;;;3.81;36.97;99021.44;6208076;28;124257;-56
2021/01/16 03:06:25;;;;;;;;;18.00;16.60;;;;;3.82;36.91;99023.13;6184292;28;127718;-56
2021/01/16 03:09:29;;;;;;;;;17.00;15.00;;;;;3.32;37.53;98940.91;6188907;28;126074;-57
2021/01/16 03:12:30;;;;;;;;;18.60;15.60;;;;;3.55;37.19;98969.47;6208348;28;126101;-57
2021/01/16 03:15:32;;;;;;;;;19.00;17.80;;;;;3.76;37.70;98997.16;6208503;28;127079;-57
2021/01/16 03:18:43;;;;;;;;;18.00;17.00;;;;;3.45;37.93;98951.84;6184214;28;126163;-57
2021/01/16 03:21:44;;;;;;;;;18.60;18.00;;;;;3.65;37.90;98991.41;6183107;28;124063;-57
2021/01/16 03:24:47;;;;;;;;;21.00;18.00;;;;;3.58;38.41;98991.25;6183129;28;126535;-58
2021/01/16 03:27:49;;;;;;;;;23.40;19.60;;;;;3.54;38.46;98989.13;6183623;28;127011;-57
2021/01/16 03:30:51;;;;;;;;;26.00;20.00;;;;;3.51;38.57;98984.16;6183888;28;125127;-57
2021/01/16 03:33:52;;;;;;;;;23.40;19.40;;;;;3.53;38.69;98993.63;6196831;28;125532;-57
2021/01/16 03:36:54;;;;;;;;;25.60;21.80;;;;;3.51;38.48;99003.66;6218193;28;125450;-58
2021/01/16 03:39:55;;;;;;;;;22.40;19.40;;;;;3.49;38.33;99006.47;6182980;28;125566;-57
2021/01/16 03:42:58;;;;;;;;;18.50;16.50;;;;;3.24;38.37;98964.94;6182364;28;124792;-56
2021/01/16 03:45:59;;;;;;;;;18.00;17.00;;;;;3.33;38.38;98979.88;6183608;28;126505;-56
2021/01/16 03:49:01;;;;;;;;;21.50;17.50;;;;;3.38;38.69;98980.19;6184135;28;125147;-56
2021/01/16 03:52:03;;;;;;;;;16.25;15.00;;;;;3.55;38.08;99004.13;6182489;28;126773;-56
2021/01/16 03:55:07;;;;;;;;;18.20;18.00;;;;;3.29;38.55;98959.94;6183314;28;124472;-56
2021/01/16 03:58:08;;;;;;;;;19.00;17.20;;;;;3.26;38.53;98946.13;6182465;28;124925;-56
2021/01/16 04:01:10;;;;;;;;;16.60;14.60;;;;;3.45;38.84;98988.34;6184635;28;125148;-56
2021/01/16 04:04:12;;;;;;;;;18.20;16.20;;;;;3.45;39.00;98989.19;6192963;28;126827;-56
2021/01/16 04:07:14;;;;;;;;;19.50;17.00;;;;;3.34;38.72;98980.72;6208716;27;125258;-56
2021/01/16 04:10:15;;;;;;;;;19.50;18.25;;;;;3.28;39.25;98976.06;6199083;28;126333;-57
2021/01/16 04:13:16;;;;;;;;;20.60;17.60;;;;;2.86;39.19;98929.31;6186484;28;125694;-57
2021/01/16 04:16:18;;;;;;;;;21.80;18.00;;;;;2.98;39.50;98938.56;6187495;28;126858;-57
2021/01/16 04:19:19;;;;;;;;;22.40;19.00;;;;;3.15;39.59;98975.81;6186216;28;125034;-57
2021/01/16 04:22:21;;;;;;;;;22.00;19.00;;;;;3.12;39.58;98971.66;6187390;28;126659;-57
2021/01/16 04:25:22;;;;;;;;;20.00;17.00;;;;;3.01;39.91;98967.53;6186403;28;127477;-56
2021/01/16 04:28:24;;;;;;;;;19.25;17.25;;;;;3.09;39.85;98961.34;6187665;28;126466;-56
2021/01/16 04:31:25;;;;;;;;;20.60;19.00;;;;;2.97;40.01;98954.75;6191812;28;127205;-56
2021/01/16 04:34:26;;;;;;;;;21.33;19.33;;;;;2.99;40.19;98958.03;6192108;28;126907;-56
2021/01/16 04:37:28;;;;;;;;;18.00;16.00;;;;;2.97;40.26;98962.72;6187321;28;126626;-57
2021/01/16 04:40:30;;;;;;;;;20.50;17.00;;;;;2.89;39.91;98952.09;6187653;28;126805;-56
2021/01/16 04:43:31;;;;;;;;;24.40;20.60;;;;;2.98;39.95;98961.75;6187094;28;127720;-56
2021/01/16 04:46:33;;;;;;;;;19.20;18.00;;;;;2.55;40.21;98915.06;6187383;28;127746;-56
2021/01/16 04:49:36;;;;;;;;;22.00;19.00;;;;;2.82;40.06;98964.44;6208363;28;125157;-56
2021/01/16 04:52:39;;;;;;;;;21.40;19.40;;;;;2.82;40.91;98973.25;6209732;28;127117;-56
2021/01/16 04:55:43;;;;;;;;;21.00;20.00;;;;;2.76;40.89;98965.09;6186890;28;125435;-57
2021/01/16 04:58:44;;;;;;;;;23.20;20.60;;;;;2.86;41.14;98982.56;6187181;28;126045;-56
2021/01/16 05:01:46;;;;;;;;;23.00;21.00;;;;;2.77;40.94;98956.13;6200926;28;126019;-56
2021/01/16 05:04:50;;;;;;;;;21.25;20.25;;;;;2.76;41.50;98976.59;6207534;28;127658;-57
2021/01/16 05:07:54;;;;;;;;;21.40;20.40;;;;;2.77;41.72;98972.09;6211254;28;124790;-57
2021/01/16 05:10:59;;;;;;;;;20.00;18.00;;;;;2.71;42.08;98984.25;6226280;28;126233;-57
2021/01/16 05:14:18;;;;;;;;;19.00;17.00;;;;;2.47;42.38;98944.38;6211049;28;124772;-56
2021/01/16 05:17:21;;;;;;;;;18.75;17.00;;;;;2.61;42.12;98967.63;6209736;28;126213;-56
2021/01/16 05:20:24;;;;;;;;;20.00;17.60;;;;;2.63;42.46;98988.78;6186366;28;126288;-56
2021/01/16 05:23:25;;;;;;;;;20.80;17.80;;;;;2.62;42.53;98993.25;6183547;28;126327;-57
2021/01/16 05:26:33;;;;;;;;;15.60;15.00;;;;;2.64;42.68;98991.25;6184865;28;125128;-57
2021/01/16 05:29:36;;;;;;;;;17.60;17.40;;;;;2.68;42.94;98987.28;6202767;28;125794;-56
2021/01/16 05:32:37;;;;;;;;;19.50;17.00;;;;;2.37;42.93;98955.19;6223564;28;125713;-56
2021/01/16 05:35:39;;;;;;;;;17.00;15.00;;;;;2.43;43.29;98967.84;6211043;28;125797;-56
2021/01/16 05:38:42;;;;;;;;;16.75;15.00;;;;;2.55;43.37;98992.25;6200980;28;126611;-56
2021/01/16 05:41:45;;;;;;;;;17.80;16.40;;;;;2.60;43.31;98984.59;6207234;28;125200;-57
2021/01/16 05:44:47;;;;;;;;;16.80;15.00;;;;;2.61;43.67;98989.75;6210953;28;126542;-57
2021/01/16 05:47:49;;;;;;;;;17.75;16.00;;;;;2.54;43.45;98970.13;6210341;28;125857;-57
2021/01/16 05:50:51;;;;;;;;;20.00;18.00;;;;;2.60;43.89;98976.63;6209901;28;125027;-56
2021/01/16 05:53:53;;;;;;;;;20.00;17.40;;;;;2.56;43.70;98975.28;6210438;28;125263;-56
2021/01/16 05:56:56;;;;;;;;;20.00;17.00;;;;;2.40;43.86;98933.56;6210208;28;126399;-56
2021/01/16 05:59:59;;;;;;;;;20.75;18.00;;;;;2.72;43.25;98977.09;6187173;28;126529;-56
2021/01/16 06:03:01;;;;;;;;;22.00;19.00;;;;;2.72;43.89;98979.75;6185887;28;126022;-57
2021/01/16 06:06:10;;;;;;;;;21.00;18.00;;;;;2.81;43.50;98984.91;6183950;28;126192;-56
2021/01/16 06:09:17;;;;;;;;;24.00;20.00;;;;;2.91;43.72;98982.88;6202929;28;124663;-56
2021/01/16 06:12:21;;;;;;;;;21.00;17.00;;;;;2.86;43.53;98971.91;6188505;28;124968;-57
2021/01/16 06:15:33;;;;;;;;;21.00;18.00;;;;;3.04;43.33;98975.16;6198791;28;125893;-57
2021/01/16 06:18:39;;;;;;;;;18.80;17.40;;;;;3.11;43.50;98971.84;6209645;28;125740;-57
2021/01/16 06:21:43;;;;;;;;;20.60;19.60;;;;;3.01;44.04;98969.38;6206154;28;128018;-56
2021/01/16 06:24:47;;;;;;;;;20.40;19.00;;;;;3.13;43.83;98975.16;6208405;28;126575;-56
2021/01/16 06:27:50;;;;;;;;;21.40;20.60;;;;;3.07;43.56;98957.19;6197589;28;126904;-56
2021/01/16 06:30:54;;;;;;;;;20.00;17.60;;;;;2.98;43.43;98948.41;6184679;28;126900;-57
2021/01/16 06:33:58;;;;;;;;;21.00;20.00;;;;;3.19;43.63;98963.78;6207171;28;124763;-56
2021/01/16 06:37:09;;;;;;;;;23.00;19.00;;;;;3.20;43.80;98963.63;6195630;28;128103;-57
2021/01/16 06:40:33;;;;;;;;;26.20;22.00;;;;;3.09;43.73;98942.69;6184599;28;127176;-56
2021/01/16 06:43:39;;;;;;;;;25.00;24.00;;;;;3.13;43.93;98953.84;6202699;28;126199;-56
2021/01/16 06:46:47;;;;;;;;;21.40;20.40;;;;;3.19;43.87;98953.13;6203985;28;126583;-56
2021/01/16 06:49:58;;;;;;;;;25.00;21.00;;;;;3.05;43.92;98952.03;6209185;28;124264;-56
2021/01/16 06:53:00;;;;;;;;;23.20;23.00;;;;;3.21;44.21;98965.31;6210106;28;124997;-57
2021/01/16 06:56:09;;;;;;;;;25.00;22.40;;;;;2.99;44.38;98939.41;6207753;28;125398;-56
2021/01/16 06:59:14;;;;;;;;;23.20;21.80;;;;;3.26;44.16;98957.63;6186545;28;127045;-57
2021/01/16 07:02:21;;;;;;;;;23.50;21.75;;;;;3.33;44.04;98961.22;6186391;28;126167;-56
2021/01/16 07:05:23;;;;;;;;;25.75;23.75;;;;;3.31;43.82;98963.25;6233678;27;124868;-57
2021/01/16 07:08:29;;;;;;;;;29.00;27.60;;;;;3.36;44.20;98966.22;6233274;27;126787;-56
2021/01/16 07:11:42;;;;;;;;;29.00;26.40;;;;;3.32;43.99;98942.78;6228960;28;124752;-57
2021/01/16 07:14:43;;;;;;;;;28.60;27.00;;;;;3.43;44.18;98959.19;6201600;28;125613;-56
2021/01/16 07:17:46;;;;;;;;;32.00;26.00;;;;;3.33;44.67;98955.91;6190712;28;125159;-56
2021/01/16 07:20:48;;;;;;;;;29.60;25.00;;;;;3.35;44.42;98955.75;6198771;28;123878;-57
2021/01/16 07:23:49;;;;;;;;;30.00;26.50;;;;;3.26;44.75;98928.31;6195587;28;126581;-56
2021/01/16 07:26:51;;;;;;;;;32.75;30.00;;;;;3.41;44.52;98936.41;6197843;28;127205;-56
2021/01/16 07:29:57;;;;;;;;;32.00;30.00;;;;;3.48;44.69;98945.34;6200959;28;126488;-56
2021/01/16 07:33:01;;;;;;;;;33.50;30.00;;;;;3.51;44.88;98944.16;6193571;28;126195;-56
2021/01/16 07:36:04;;;;;;;;;35.67;32.00;;;;;3.28;44.90;98907.63;6183706;28;124881;-57
2021/01/16 07:39:08;;;;;;;;;34.75;31.00;;;;;3.43;44.73;98921.88;6197432;28;125440;-57
2021/01/16 07:42:15;;;;;;;;;35.25;32.00;;;;;3.74;44.65;98948.53;6182562;28;127096;-57
2021/01/16 07:45:49;;;;;;;;;34.00;30.20;;;;;3.78;44.66;98936.50;6183818;28;125956;-57
2021/01/16 07:48:56;;;;;;;;;37.75;32.00;;;;;3.85;44.54;98941.94;6173826;28;126029;-56
2021/01/16 07:52:06;;;;;;;;;35.00;30.00;;;;;3.71;44.36;98908.88;6183475;28;127689;-56
2021/01/16 07:55:08;;;;;;;;;37.40;31.80;;;;;3.98;44.14;98938.69;6183753;28;125199;-56
2021/01/16 07:58:31;;;;;;;;;34.00;30.00;;;;;3.97;44.22;98937.84;6198242;28;126900;-56
2021/01/16 08:01:39;;;;;;;;;34.80;31.20;;;;;4.03;44.46;98945.16;6189661;28;126001;-56
2021/01/16 08:05:01;;;;;;;;;38.00;32.00;;;;;4.00;44.23;98942.84;6205604;28;126512;-57
2021/01/16 08:08:33;;;;;;;;;37.50;32.50;;;;;4.06;44.65;98942.09;6198820;28;127026;-58
2021/01/16 08:11:36;;;;;;;;;37.40;32.80;;;;;4.11;44.46;98928.22;6207802;28;124921;-57
2021/01/16 08:14:38;;;;;;;;;39.40;33.40;;;;;4.22;44.18;98928.63;6223560;28;125129;-57
2021/01/16 08:17:42;;;;;;;;;38.40;33.00;;;;;4.10;44.30;98919.41;6217075;28;128940;-58
2021/01/16 08:20:46;;;;;;;;;36.80;32.20;;;;;4.23;44.34;98932.97;6213931;28;125340;-57
2021/01/16 08:23:48;;;;;;;;;40.00;35.00;;;;;4.27;44.01;98920.91;6223830;27;126004;-56
2021/01/16 08:27:02;;;;;;;;;39.40;32.00;;;;;4.18;43.93;98894.50;6215334;27;124297;-57
2021/01/16 08:30:13;;;;;;;;;41.40;34.00;;;;;4.50;43.81;98920.84;6195553;28;124674;-56
2021/01/16 08:33:14;;;;;;;;;38.00;33.00;;;;;4.57;43.75;98915.63;6212643;28;125984;-56
2021/01/16 08:36:17;;;;;;;;;40.25;34.00;;;;;4.61;43.59;98930.28;6215967;28;124298;-56
2021/01/16 08:39:28;;;;;;;;;39.25;32.25;;;;;4.73;43.69;98931.50;6211747;28;125995;-56
2021/01/16 08:42:29;;;;;;;;;46.00;34.25;;;;;4.76;43.55;98917.75;6221011;28;125986;-56
2021/01/16 08:45:31;;;;;;;;;39.60;33.00;;;;;4.89;43.18;98941.19;6198728;28;126158;-57
2021/01/16 08:48:32;;;;;;;;;35.75;32.00;;;;;4.58;42.94;98891.44;6214331;28;125754;-57
2021/01/16 08:51:44;;;;;;;;;37.00;31.00;;;;;5.02;42.82;98926.16;6220763;28;124898;-57
2021/01/16 08:54:59;;;;;;;;;43.50;34.50;;;;;5.08;41.97;98911.22;6223184;28;125734;-57
2021/01/16 08:58:07;;;;;;;;;40.40;33.00;;;;;5.46;42.06;98936.78;6196850;28;126921;-57
2021/01/16 09:01:09;;;;;;;;;40.80;33.20;;;;;5.75;41.42;98929.69;6229467;28;126602;-57
2021/01/16 09:04:18;;;;;;;;;35.00;31.00;;;;;5.93;40.79;98933.59;6220492;28;124893;-57
2021/01/16 09:07:22;;;;;;;;;30.60;28.60;;;;;5.75;40.59;98886.88;6214963;28;126892;-56
2021/01/16 09:10:25;;;;;;;;;30.75;28.00;;;;;6.16;40.36;98936.06;6224347;28;124390;-57
2021/01/16 09:13:32;;;;;;;;;32.00;28.50;;;;;6.21;39.99;98943.53;6227359;28;124920;-57
2021/01/16 09:16:35;;;;;;;;;29.80;26.60;;;;;6.22;40.01;98919.25;6227338;28;124699;-56
2021/01/16 09:19:37;;;;;;;;;32.00;30.00;;;;;6.09;39.56;98911.94;6218370;28;125925;-56
2021/01/16 09:22:38;;;;;;;;;30.00;28.00;;;;;6.19;39.71;98940.22;6218800;28;128507;-56
2021/01/16 09:25:40;;;;;;;;;27.40;26.00;;;;;6.04;39.86;98919.72;6198490;28;127273;-56
2021/01/16 09:28:49;;;;;;;;;28.00;25.80;;;;;6.07;39.76;98942.59;6195224;28;128229;-56
2021/01/16 09:31:51;;;;;;;;;31.40;30.00;;;;;6.03;40.08;98935.97;6178399;28;125517;-57
2021/01/16 09:34:52;;;;;;;;;28.00;23.25;;;;;5.94;40.29;98931.75;6198600;28;125123;-56
2021/01/16 09:37:54;;;;;;;;;27.40;24.40;;;;;5.93;40.55;98922.91;6202484;28;126498;-57
2021/01/16 09:40:55;;;;;;;;;30.50;27.50;;;;;6.00;40.26;98922.97;6233003;28;126349;-57
2021/01/16 09:43:57;;;;;;;;;28.40;26.00;;;;;6.02;40.21;98932.47;6220809;28;128447;-56
2021/01/16 09:46:59;;;;;;;;;25.25;22.25;;;;;5.77;40.27;98906.22;6184872;28;125402;-57
2021/01/16 09:50:00;;;;;;;;;26.80;24.00;;;;;6.02;40.33;98918.25;6184183;28;128495;-56
2021/01/16 09:53:04;;;;;;;;;25.80;22.60;;;;;5.94;40.26;98921.06;6184933;28;126136;-57
2021/01/16 09:56:06;;;;;;;;;26.00;24.75;;;;;5.91;40.51;98918.78;6193718;28;126202;-57
2021/01/16 09:59:08;;;;;;;;;25.20;23.00;;;;;5.94;40.68;98916.53;6197783;28;124660;-58
2021/01/16 10:02:13;;;;;;;;;26.00;24.00;;;;;5.09;40.78;98787.25;6198833;28;125183;-56
2021/01/16 10:05:27;;;;;;;;;28.60;24.60;;;;;5.73;41.01;98884.38;6224981;27;125285;-57
2021/01/16 10:08:29;;;;;;;;;26.00;25.00;;;;;5.93;41.01;98909.53;6218152;27;124013;-56
2021/01/16 10:11:44;;;;;;;;;27.60;25.60;;;;;5.94;40.78;98908.50;6224192;28;124574;-57
2021/01/16 10:14:50;;;;;;;;;29.00;27.00;;;;;5.97;40.78;98905.44;6224441;28;125445;-57
2021/01/16 10:17:55;;;;;;;;;28.00;24.50;;;;;5.73;40.60;98860.31;6219246;28;124996;-56
2021/01/16 10:21:08;;;;;;;;;29.75;27.00;;;;;5.99;40.53;98881.16;6217293;27;125530;-56
2021/01/16 10:24:18;;;;;;;;;30.00;26.50;;;;;5.75;40.65;98852.94;6221412;27;126081;-58
2021/01/16 10:27:41;;;;;;;;;27.00;25.00;;;;;6.20;40.75;98902.56;6229554;28;125752;-57
2021/01/16 10:30:57;;;;;;;;;30.00;26.00;;;;;6.18;40.36;98891.22;6215397;27;124546;-57
2021/01/16 10:34:10;;;;;;;;;26.00;24.50;;;;;6.22;40.55;98888.97;6205812;28;125881;-56
2021/01/16 10:37:12;;;;;;;;;26.00;23.00;;;;;6.22;40.59;98887.13;6219874;28;125883;-56
2021/01/16 10:40:14;;;;;;;;;29.00;26.00;;;;;6.24;40.51;98882.41;6219747;27;126242;-57
2021/01/16 10:43:15;;;;;;;;;26.00;23.20;;;;;6.20;40.26;98877.66;6201992;28;126134;-57
2021/01/16 10:46:29;;;;;;;;;24.00;22.40;;;;;6.18;40.51;98877.84;6212175;28;125581;-57
2021/01/16 10:49:49;;;;;;;;;25.50;24.00;;;;;6.23;40.77;98885.28;6191219;28;125331;-56
2021/01/16 10:53:01;;;;;;;;;27.60;25.60;;;;;6.09;40.95;98866.44;6217265;28;126000;-57
2021/01/16 10:56:13;;;;;;;;;26.00;24.00;;;;;6.02;41.37;98854.00;6207148;28;126995;-56
2021/01/16 10:59:15;;;;;;;;;28.75;26.25;;;;;6.14;41.20;98860.50;6216161;28;127230;-56
2021/01/16 11:02:17;;;;;;;;;24.80;23.40;;;;;6.20;41.19;98848.19;6203871;27;127321;-56
2021/01/16 11:05:25;;;;;;;;;26.40;25.00;;;;;5.96;41.27;98810.13;6182268;28;127139;-57
2021/01/16 11:08:35;;;;;;;;;26.50;24.50;;;;;6.25;41.43;98854.63;6221982;28;124691;-57
2021/01/16 11:11:47;;;;;;;;;26.80;25.40;;;;;6.25;41.50;98846.59;6199773;28;126094;-56
2021/01/16 11:14:49;;;;;;;;;26.80;25.00;;;;;6.18;41.70;98839.53;6217593;28;126334;-56
2021/01/16 11:17:53;;;;;;;;;26.00;24.50;;;;;6.30;41.68;98840.66;6209043;28;128323;-57
2021/01/16 11:20:59;;;;;;;;;24.80;22.80;;;;;6.21;41.86;98823.06;6210913;27;124547;-56
2021/01/16 11:24:45;;;;;;;;;27.25;22.25;;;;;6.25;41.62;98835.91;6189270;28;124928;-56
2021/01/16 11:28:10;;;;;;;;;25.00;23.60;;;;;6.36;41.38;98838.00;6195821;28;124959;-56
2021/01/16 11:31:24;;;;;;;;;27.00;25.00;;;;;6.50;41.36;98821.00;6204346;28;126006;-57
2021/01/16 11:34:27;;;;;;;;;28.20;26.80;;;;;6.40;41.41;98795.63;6207526;28;125377;-57
2021/01/16 11:37:56;;;;;;;;;28.00;26.00;;;;;6.43;40.91;98824.66;6213198;28;126829;-57
2021/01/16 11:40:57;;;;;;;;;28.50;26.00;;;;;6.29;40.72;98782.78;6226516;28;123484;-57
2021/01/16 11:43:59;;;;;;;;;27.50;24.50;;;;;6.55;40.72;98809.69;6212722;27;97375;-56
2021/01/16 11:47:01;;;;;;;;;27.20;25.80;;;;;6.57;40.74;98818.38;6211302;28;125152;-57
2021/01/16 11:50:06;;;;;;;;;30.60;25.80;;;;;6.40;40.59;98772.31;6220216;27;126306;-56
2021/01/16 11:53:09;;;;;;;;;26.40;24.40;;;;;6.65;40.52;98806.66;6203075;28;127025;-57
2021/01/16 11:56:12;;;;;;;;;25.40;25.00;;;;;6.57;40.19;98785.38;6199637;28;125720;-57
2021/01/16 11:59:14;;;;;;;;;27.60;24.60;;;;;6.83;40.60;98804.28;6202199;28;125571;-57
2021/01/16 12:02:15;;;;;;;;;30.00;26.60;;;;;6.77;40.37;98799.72;6202698;28;126418;-57
2021/01/16 12:05:20;;;;;;;;;29.20;28.20;;;;;6.72;40.42;98794.94;6207784;28;128357;-57
2021/01/16 12:08:23;;;;;;;;;30.00;27.00;;;;;6.80;40.34;98797.44;6206247;28;126002;-56
2021/01/16 12:11:25;;;;;;;;;33.25;29.00;;;;;6.57;40.95;98775.50;6206381;28;127008;-56
2021/01/16 12:14:35;;;;;;;;;27.20;26.00;;;;;6.71;41.03;98792.47;6204588;28;129105;-57
2021/01/16 12:17:37;;;;;;;;;34.00;29.40;;;;;6.70;41.10;98791.63;6213566;28;125184;-56
2021/01/16 12:20:39;;;;;;;;;27.00;24.60;;;;;6.68;40.75;98782.16;6216280;27;125196;-57
2021/01/16 12:23:43;;;;;;;;;32.80;29.00;;;;;6.61;40.75;98773.25;6223248;27;126514;-57
2021/01/16 12:26:50;;;;;;;;;29.00;27.00;;;;;6.70;40.79;98772.06;6215895;28;127646;-57
2021/01/16 12:29:55;;;;;;;;;27.00;25.00;;;;;6.68;40.66;98768.75;6219753;28;124756;-57
2021/01/16 12:32:56;;;;;;;;;26.25;24.00;;;;;6.56;40.58;98767.66;6224108;27;124911;-57
2021/01/16 12:36:07;;;;;;;;;26.40;24.80;;;;;6.36;40.99;98767.56;6223295;28;126418;-56
2021/01/16 12:39:10;;;;;;;;;27.60;24.60;;;;;6.02;41.54;98739.78;6214161;27;124077;-56
2021/01/16 12:42:13;;;;;;;;;25.80;23.80;;;;;6.28;41.70;98775.75;6222918;27;124964;-57
2021/01/16 12:45:23;;;;;;;;;24.00;23.20;;;;;6.28;41.36;98765.06;6223308;28;126319;-57
2021/01/16 12:48:31;;;;;;;;;27.40;24.40;;;;;6.35;41.45;98764.06;6204778;28;127760;-57
2021/01/16 12:51:34;;;;;;;;;25.60;23.00;;;;;6.29;41.54;98756.84;6205499;28;125030;-57
2021/01/16 12:54:35;;;;;;;;;25.60;24.00;;;;;6.11;41.65;98755.69;6227860;28;127266;-57
2021/01/16 12:57:39;;;;;;;;;21.00;19.00;;;;;5.98;41.43;98754.56;6206322;28;126556;-57
2021/01/16 13:00:41;;;;;;;;;26.00;23.00;;;;;5.94;41.45;98750.63;6203759;28;125749;-56
2021/01/16 13:03:43;;;;;;;;;22.40;21.40;;;;;5.96;41.43;98751.25;6226759;27;126621;-57
2021/01/16 13:06:47;;;;;;;;;24.60;22.60;;;;;5.83;41.38;98742.28;6202947;28;126081;-56
2021/01/16 13:09:50;;;;;;;;;23.40;21.00;;;;;5.37;41.98;98688.47;6217966;28;127079;-57
2021/01/16 13:12:53;;;;;;;;;21.00;20.25;;;;;5.44;41.93;98721.41;6212839;28;124809;-56
2021/01/16 13:16:01;;;;;;;;;24.00;21.00;;;;;5.57;41.93;98745.59;6210627;27;124783;-57
2021/01/16 13:19:03;;;;;;;;;21.80;19.80;;;;;5.52;41.71;98750.69;6215851;28;125913;-57
2021/01/16 13:22:04;;;;;;;;;21.33;20.00;;;;;5.37;40.91;98750.78;6206317;28;126474;-57
2021/01/16 13:25:07;;;;;;;;;17.60;16.20;;;;;5.26;40.83;98745.94;6198271;28;127489;-57
2021/01/16 13:28:09;;;;;;;;;20.00;19.00;;;;;5.10;40.90;98700.75;6202715;28;128478;-56
2021/01/16 13:31:14;;;;;;;;;22.00;19.00;;;;;4.90;40.77;98681.03;6213833;28;125409;-56
2021/01/16 13:34:16;;;;;;;;;19.00;18.00;;;;;5.36;40.90;98745.63;6222080;27;126622;-56
2021/01/16 13:37:17;;;;;;;;;18.20;17.20;;;;;5.34;40.66;98740.44;6227523;28;126566;-56
2021/01/16 13:40:22;;;;;;;;;18.60;17.40;;;;;5.44;39.95;98738.28;6210450;28;126647;-56
2021/01/16 13:43:29;;;;;;;;;12.00;12.00;;;;;5.43;39.53;98736.63;6226507;28;125295;-56
2021/01/16 13:46:38;;;;;;;;;12.20;12.00;;;;;5.37;39.17;98736.56;6206479;28;125319;-57
2021/01/16 13:49:40;;;;;;;;;12.60;12.00;;;;;5.29;38.58;98728.66;6196308;28;127526;-57
2021/01/16 13:52:46;;;;;;;;;11.20;9.60;;;;;5.14;38.89;98721.56;6208629;28;126415;-57
2021/01/16 13:55:56;;;;;;;;;11.00;10.00;;;;;5.01;38.22;98724.09;6224862;27;124793;-57
2021/01/16 13:58:59;;;;;;;;;11.00;10.00;;;;;4.77;38.07;98679.06;6219824;28;125978;-57
2021/01/16 14:02:01;;;;;;;;;10.75;10.00;;;;;5.00;38.96;98717.09;6201650;28;125154;-57
2021/01/16 14:05:03;;;;;;;;;10.00;10.00;;;;;4.99;39.26;98727.97;6222328;28;127309;-57
2021/01/16 14:08:13;;;;;;;;;13.80;12.00;;;;;4.81;39.53;98712.38;6202568;28;124657;-57
2021/01/16 14:11:15;;;;;;;;;14.00;12.25;;;;;4.78;40.01;98724.28;6209617;27;126304;-57